Time;durP1;ratioP1;P1;durP2;ratioP2;P2;SDS_P1;SDS_P2;PMS_P1;PMS_P2;Temp;Humidity;BMP_temperature;BMP_pressure;BME280_temperature;BME280_humidity;BME280_pressure;Samples;Min_cycle;Max_cycle;Signal;HPM_P1;HPM_P2
2022/10/03 00:01:04;;;;;;;2.20;1.90;;;;;;;7.62;92.17;97967.39;109255;1276;22470;-63
2022/10/03 00:03:53;;;;;;;2.00;1.50;;;;;;;7.62;92.29;97965.70;109326;1276;22477;-64
2022/10/03 00:06:39;;;;;;;4.50;1.50;;;;;;;7.64;92.17;97967.82;109379;1273;22501;-64
2022/10/03 00:09:10;;;;;;;1.70;1.60;;;;;;;7.65;92.09;97960.69;109617;1273;22446;-64
2022/10/03 00:11:46;;;;;;;3.60;1.80;;;;;;;7.65;92.12;97956.62;109296;1273;22487;-64
2022/10/03 00:14:34;;;;;;;7.20;2.20;;;;;;;7.66;92.01;97959.92;109464;1272;22452;-64
2022/10/03 00:17:01;;;;;;;2.50;2.30;;;;;;;7.67;92.01;97953.48;109477;1273;22438;-64
2022/10/03 00:19:46;;;;;;;4.50;2.20;;;;;;;7.67;91.93;97950.00;109584;1272;22471;-64
2022/10/03 00:22:25;;;;;;;6.30;2.10;;;;;;;7.67;91.77;97952.13;109465;1272;23354;-64
2022/10/03 00:25:04;;;;;;;2.90;2.30;;;;;;;7.68;91.74;97948.38;109591;1272;22509;-64
2022/10/03 00:27:45;;;;;;;3.00;2.60;;;;;;;7.68;91.66;97944.26;109519;1272;22419;-65
2022/10/03 00:30:15;;;;;;;3.10;2.60;;;;;;;7.68;91.57;97941.59;109540;1273;23307;-64
2022/10/03 00:33:03;;;;;;;3.10;2.80;;;;;;;7.68;91.60;97944.31;109466;1272;22477;-64
2022/10/03 00:35:52;;;;;;;4.30;2.60;;;;;;;7.69;91.66;97942.25;109427;1273;22408;-64
2022/10/03 00:38:39;;;;;;;4.20;2.70;;;;;;;7.70;91.76;97938.77;109579;1273;22570;-64
2022/10/03 00:41:18;;;;;;;3.30;2.70;;;;;;;7.72;91.93;97934.71;109442;1272;22453;-64
2022/10/03 00:43:50;;;;;;;3.90;2.90;;;;;;;7.72;91.85;97931.27;109409;1273;22432;-64
2022/10/03 00:46:36;;;;;;;3.50;2.70;;;;;;;7.72;91.95;97937.69;109473;1272;22509;-64
2022/10/03 00:49:14;;;;;;;5.70;3.10;;;;;;;7.73;91.95;97942.29;109545;1272;23105;-64
2022/10/03 00:52:14;;;;;;;5.20;2.50;;;;;;;7.75;92.02;97940.12;109344;1273;22446;-63
2022/10/03 00:54:53;;;;;;;4.60;3.10;;;;;;;7.77;92.32;97932.46;109518;1273;22407;-63
2022/10/03 00:57:39;;;;;;;3.00;2.60;;;;;;;7.77;92.18;97933.88;109496;1273;22264;-63
2022/10/03 01:00:26;;;;;;;6.10;2.80;;;;;;;7.76;92.26;97926.84;109441;1273;22419;-64
2022/10/03 01:03:11;;;;;;;7.20;2.90;;;;;;;7.76;92.30;97927.38;109505;1272;22391;-63
2022/10/03 01:05:55;;;;;;;7.00;3.20;;;;;;;7.75;92.28;97924.34;109460;1273;22449;-63
2022/10/03 01:08:45;;;;;;;3.70;2.80;;;;;;;7.75;92.51;97926.35;109458;1273;22479;-63
2022/10/03 01:11:21;;;;;;;4.00;3.30;;;;;;;7.74;92.37;97925.92;109501;1271;22417;-63
2022/10/03 01:14:23;;;;;;;4.40;3.00;;;;;;;7.74;92.48;97925.31;109426;1273;22409;-65
2022/10/03 01:17:05;;;;;;;3.60;3.10;;;;;;;7.75;92.74;97925.59;108910;1279;23202;-65
2022/10/03 01:19:42;;;;;;;3.30;2.90;;;;;;;7.74;92.75;97922.77;108778;1279;22475;-65
2022/10/03 01:22:30;;;;;;;3.20;2.90;;;;;;;7.75;92.93;97921.80;108858;1279;22478;-65
2022/10/03 01:25:01;;;;;;;3.40;2.80;;;;;;;7.75;92.90;97920.48;108956;1279;22437;-64
2022/10/03 01:30:46;;;;;;;3.60;2.90;;;;;;;7.76;93.02;97921.20;108446;1284;22910;-65
2022/10/03 01:33:23;;;;;;;4.30;2.80;;;;;;;7.76;93.16;97922.71;108163;1284;23375;-65
2022/10/03 01:35:54;;;;;;;3.80;3.30;;;;;;;7.76;93.20;97925.64;108203;1285;22475;-65
2022/10/03 01:38:39;;;;;;;3.20;2.90;;;;;;;7.78;93.40;97924.54;108296;1284;22580;-64
2022/10/03 01:41:21;;;;;;;2.90;2.60;;;;;;;7.81;93.36;97923.05;108378;1284;22489;-65
2022/10/03 01:43:50;;;;;;;3.40;2.60;;;;;;;7.82;93.39;97927.06;108446;1285;23182;-64
2022/10/03 01:46:20;;;;;;;5.30;2.70;;;;;;;7.84;93.42;97921.63;108200;1285;23182;-64
2022/10/03 01:48:51;;;;;;;3.90;3.00;;;;;;;7.85;93.38;97924.88;108336;1284;23599;-64
2022/10/03 01:51:20;;;;;;;3.80;3.10;;;;;;;7.86;93.44;97925.95;108375;1284;22604;-64
2022/10/03 01:54:06;;;;;;;2.90;2.60;;;;;;;7.87;93.30;97919.39;108623;1279;23173;-64
2022/10/03 01:56:40;;;;;;;3.30;2.70;;;;;;;7.88;93.21;97922.65;108852;1279;23341;-64
2022/10/03 01:59:12;;;;;;;5.60;3.20;;;;;;;7.88;93.12;97926.45;108656;1279;22297;-64
2022/10/03 02:02:27;;;;;;;5.10;3.10;;;;;;;7.88;93.02;97924.88;108762;1279;23638;-64
2022/10/03 02:05:06;;;;;;;3.90;3.20;;;;;;;7.88;93.00;97921.56;108242;1285;22488;-63
2022/10/03 02:07:41;;;;;;;3.60;3.20;;;;;;;7.89;93.02;97928.71;108432;1279;22439;-63
2022/10/03 02:10:26;;;;;;;3.30;2.90;;;;;;;7.88;93.19;97925.52;108888;1279;22473;-64
2022/10/03 02:13:13;;;;;;;5.00;3.30;;;;;;;7.90;93.14;97922.96;108935;1279;22489;-62
2022/10/03 02:15:53;;;;;;;4.60;3.00;;;;;;;7.90;93.07;97921.66;108948;1279;22539;-62
2022/10/03 02:18:39;;;;;;;3.80;3.40;;;;;;;7.90;93.11;97918.90;108831;1279;22470;-63
2022/10/03 02:21:08;;;;;;;4.40;3.20;;;;;;;7.90;93.07;97914.73;108628;1279;22462;-62
2022/10/03 02:23:35;;;;;;;4.00;3.00;;;;;;;7.91;93.06;97915.91;108871;1279;22540;-64
2022/10/03 02:26:17;;;;;;;4.80;3.20;;;;;;;7.93;93.14;97913.23;108880;1279;22252;-63
2022/10/03 02:29:14;;;;;;;3.50;3.20;;;;;;;7.94;93.03;97918.91;109004;1279;22466;-63
2022/10/03 02:31:59;;;;;;;6.50;3.40;;;;;;;7.94;92.86;97919.73;108741;1279;23278;-63
2022/10/03 02:34:35;;;;;;;3.40;3.10;;;;;;;7.95;92.89;97923.89;108822;1279;22479;-62
2022/10/03 02:37:30;;;;;;;3.60;3.20;;;;;;;7.95;92.85;97922.43;108807;1280;23367;-62
2022/10/03 02:40:09;;;;;;;4.10;2.90;;;;;;;7.96;92.91;97917.82;108863;1279;22458;-63
2022/10/03 02:42:49;;;;;;;4.60;3.30;;;;;;;7.96;92.90;97919.02;109476;1273;23355;-62
2022/10/03 02:45:31;;;;;;;3.60;3.00;;;;;;;7.97;92.89;97919.70;109515;1274;22499;-63
2022/10/03 02:48:10;;;;;;;4.80;3.50;;;;;;;7.98;92.88;97918.73;109599;1271;22460;-62
2022/10/03 02:50:59;;;;;;;;;;;;;;;8.00;92.87;97917.74;109570;1274;23382;-62
2022/10/03 02:53:37;;;;;;;3.80;3.00;;;;;;;7.99;92.72;97910.05;109589;1273;22431;-63
2022/10/03 02:56:12;;;;;;;4.10;2.70;;;;;;;7.98;92.56;97910.91;109514;1273;22535;-62
2022/10/03 02:58:39;;;;;;;5.40;3.00;;;;;;;7.97;92.44;97912.39;109597;1272;22429;-63
2022/10/03 03:01:21;;;;;;;;;;;;;;;7.97;92.47;97914.02;109631;1273;22579;-63
2022/10/03 03:04:03;;;;;;;4.40;2.70;;;;;;;7.96;92.41;97908.81;109496;1273;22427;-63
2022/10/03 03:06:53;;;;;;;5.10;2.80;;;;;;;7.96;92.38;97911.20;109486;1274;22574;-62
2022/10/03 03:09:35;;;;;;;3.30;2.60;;;;;;;7.96;92.29;97895.63;109532;1273;22429;-62
2022/10/03 03:12:34;;;;;;;3.90;2.80;;;;;;;7.97;92.28;97904.58;109609;1273;22552;-62
2022/10/03 03:15:40;;;;;;;3.00;2.70;;;;;;;7.97;92.11;97914.60;109595;1271;23226;-62
2022/10/03 03:18:11;;;;;;;5.00;2.70;;;;;;;7.97;91.90;97915.42;109600;1273;22387;-62
2022/10/03 03:21:03;;;;;;;7.20;3.20;;;;;;;7.97;91.82;97907.51;109578;1274;22474;-62
2022/10/03 03:23:38;;;;;;;3.30;2.90;;;;;;;7.97;91.88;97909.63;109056;1277;22752;-62
2022/10/03 03:27:06;;;;;;;3.50;2.80;;;;;;;7.96;91.90;97905.07;109004;1280;22467;-63
2022/10/03 03:30:04;;;;;;;4.30;2.80;;;;;;;7.95;91.94;97902.59;107403;1291;22623;-63
2022/10/03 03:32:46;;;;;;;4.80;3.10;;;;;;;7.93;91.86;97908.80;107422;1291;22466;-63
2022/10/03 03:35:24;;;;;;;3.30;3.00;;;;;;;7.91;91.75;97903.71;107448;1291;23446;-63
2022/10/03 03:38:03;;;;;;;4.90;3.10;;;;;;;7.91;92.01;97902.95;107481;1291;22524;-63
2022/10/03 03:40:44;;;;;;;4.00;2.90;;;;;;;7.91;91.90;97899.15;107491;1291;22569;-62
2022/10/03 03:43:21;;;;;;;4.80;3.50;;;;;;;7.92;91.85;97898.93;107488;1291;22243;-63
2022/10/03 03:45:54;;;;;;;;;;;;;;;7.93;91.58;97903.92;107444;1291;22676;-63
2022/10/03 03:48:42;;;;;;;4.80;3.10;;;;;;;7.92;91.79;97908.85;107337;1292;23130;-63
2022/10/03 03:51:20;;;;;;;3.70;3.30;;;;;;;7.90;91.83;97907.84;107486;1291;23383;-62
2022/10/03 03:53:50;;;;;;;4.50;3.40;;;;;;;7.89;92.00;97905.40;107313;1293;23055;-63
2022/10/03 03:56:25;;;;;;;4.70;3.00;;;;;;;7.87;92.08;97899.98;107439;1292;22308;-62
2022/10/03 03:59:05;;;;;;;4.40;2.80;;;;;;;7.85;92.12;97900.48;107538;1291;22255;-62
2022/10/03 04:01:45;;;;;;;6.10;3.80;;;;;;;7.85;92.21;97904.11;107935;1287;22507;-62
2022/10/03 04:04:43;;;;;;;3.90;3.30;;;;;;;7.86;92.49;97904.16;108125;1287;22401;-62
2022/10/03 04:07:32;;;;;;;4.70;3.40;;;;;;;7.82;92.47;97907.33;109613;1273;22443;-62
2022/10/03 04:10:41;;;;;;;5.80;3.00;;;;;;;7.80;92.74;97907.34;109608;1273;22216;-62
2022/10/03 04:13:26;;;;;;;5.60;3.40;;;;;;;7.78;92.92;97913.21;109503;1273;23079;-62
2022/10/03 04:15:59;;;;;;;10.30;4.80;;;;;;;7.77;93.09;97915.66;109456;1274;22420;-62
2022/10/03 04:18:57;;;;;;;17.20;7.00;;;;;;;7.75;93.29;97909.81;109498;1272;22470;-62
2022/10/03 04:21:27;;;;;;;;;;;;;;;7.73;93.56;97906.08;109528;1273;22505;-63
2022/10/03 04:24:13;;;;;;;7.00;4.30;;;;;;;7.73;93.59;97900.98;109603;1273;22437;-63
2022/10/03 04:26:52;;;;;;;4.80;3.60;;;;;;;7.73;93.91;97893.55;109580;1273;22437;-62
2022/10/03 04:29:28;;;;;;;6.40;3.70;;;;;;;7.74;94.05;97894.47;109579;1273;22547;-62
2022/10/03 04:32:17;;;;;;;6.00;3.10;;;;;;;7.75;94.08;97894.95;109519;1271;22449;-63
2022/10/03 04:35:13;;;;;;;3.50;3.10;;;;;;;7.77;94.27;97894.46;109529;1273;22449;-63
2022/10/03 04:38:10;;;;;;;4.20;3.10;;;;;;;7.78;94.18;97894.89;109555;1273;22546;-67
2022/10/03 04:40:49;;;;;;;3.50;3.20;;;;;;;7.78;94.20;97893.75;106799;1273;23511;-60
2022/10/03 04:43:33;;;;;;;3.50;3.00;;;;;;;7.77;94.22;97891.70;105099;1274;23249;-62
2022/10/03 04:46:21;;;;;;;10.10;6.70;;;;;;;7.77;94.38;97887.20;109451;1272;23356;-61
2022/10/03 04:48:55;;;;;;;3.80;3.10;;;;;;;7.80;94.66;97883.95;109626;1273;22556;-62
2022/10/03 04:51:51;;;;;;;5.10;3.60;;;;;;;7.82;94.59;97885.30;109355;1274;23414;-61
2022/10/03 04:54:26;;;;;;;5.80;3.90;;;;;;;7.82;94.56;97882.75;109559;1272;23122;-63
2022/10/03 04:56:59;;;;;;;3.60;2.80;;;;;;;7.83;94.56;97891.10;109640;1272;22450;-61
2022/10/03 04:59:41;;;;;;;3.70;2.80;;;;;;;7.84;94.56;97890.34;109476;1273;22459;-61
2022/10/03 05:02:24;;;;;;;4.50;3.20;;;;;;;7.85;94.63;97871.67;109589;1272;22436;-62
2022/10/03 05:05:03;;;;;;;4.30;3.20;;;;;;;7.89;94.78;97873.19;109436;1274;22423;-62
2022/10/03 05:07:44;;;;;;;4.40;3.10;;;;;;;7.91;94.90;97860.48;109454;1273;22486;-62
2022/10/03 05:10:34;;;;;;;4.10;3.10;;;;;;;7.94;95.04;97854.32;109469;1272;22415;-62
2022/10/03 05:13:10;;;;;;;3.00;2.70;;;;;;;7.94;94.83;97869.98;109608;1274;22473;-62
2022/10/03 05:16:01;;;;;;;4.40;3.30;;;;;;;7.91;94.72;97866.77;109495;1272;22241;-61
2022/10/03 05:18:57;;;;;;;3.50;3.10;;;;;;;7.94;95.01;97858.49;109322;1274;23192;-62
2022/10/03 05:21:35;;;;;;;4.80;4.30;;;;;;;7.98;95.13;97859.49;109474;1272;22523;-62
2022/10/03 05:24:20;;;;;;;6.40;4.40;;;;;;;8.01;95.41;97853.36;109497;1273;22442;-62
2022/10/03 05:27:18;;;;;;;5.50;4.20;;;;;;;8.04;95.51;97862.83;109471;1274;22435;-62
2022/10/03 05:29:57;;;;;;;6.10;5.00;;;;;;;8.05;95.73;97868.58;109580;1272;22567;-62
2022/10/03 05:32:40;;;;;;;9.70;6.60;;;;;;;8.07;95.94;97863.68;109442;1272;23105;-63
2022/10/03 05:35:41;;;;;;;12.20;7.70;;;;;;;8.12;96.36;97855.98;109472;1274;22479;-62
2022/10/03 05:38:33;;;;;;;12.00;4.80;;;;;;;8.19;96.76;97860.29;109573;1272;22538;-62
2022/10/03 05:41:17;;;;;;;6.70;3.80;;;;;;;8.26;97.12;97858.85;105991;1274;22714;-65
2022/10/03 05:44:14;;;;;;;7.90;3.80;;;;;;;8.35;97.55;97849.11;105004;1274;23237;-63
2022/10/03 05:46:56;;;;;;;6.90;3.60;;;;;;;8.44;98.06;97855.60;105134;1274;25439;-63
2022/10/03 05:49:26;;;;;;;6.40;4.00;;;;;;;8.54;98.52;97859.73;105195;1274;24329;-63
2022/10/03 05:52:34;;;;;;;6.50;3.20;;;;;;;8.64;98.92;97852.31;105066;1274;22564;-64
2022/10/03 05:55:25;;;;;;;10.30;4.40;;;;;;;8.77;99.37;97855.84;104457;1279;22589;-64
2022/10/03 05:58:23;;;;;;;9.40;2.90;;;;;;;8.87;99.59;97857.84;104327;1281;23180;-64
2022/10/03 06:00:57;;;;;;;6.90;2.80;;;;;;;8.97;99.66;97858.61;104326;1282;22548;-62
2022/10/03 06:03:42;;;;;;;8.10;3.40;;;;;;;9.05;99.58;97859.77;104342;1280;22539;-62
2022/10/03 06:06:25;;;;;;;7.20;3.10;;;;;;;9.12;99.41;97865.98;104452;1281;24329;-61
2022/10/03 06:09:10;;;;;;;8.50;3.10;;;;;;;9.18;99.11;97863.27;104407;1280;22870;-64
2022/10/03 06:11:52;;;;;;;6.20;3.20;;;;;;;9.26;98.78;97868.16;104366;1280;25359;-63
2022/10/03 06:14:33;;;;;;;10.90;4.20;;;;;;;9.32;98.40;97870.17;104535;1281;24288;-63
2022/10/03 06:17:12;;;;;;;7.50;2.60;;;;;;;9.37;97.92;97867.45;104373;1280;25556;-63
2022/10/03 06:19:48;;;;;;;5.40;3.20;;;;;;;9.42;97.60;97871.23;104603;1281;23134;-65
2022/10/03 06:22:43;;;;;;;7.10;3.70;;;;;;;9.48;97.14;97875.03;104393;1281;23087;-63
2022/10/03 06:25:45;;;;;;;8.60;2.60;;;;;;;9.52;96.75;97870.61;104493;1281;25224;-62
2022/10/03 06:28:27;;;;;;;8.50;2.90;;;;;;;9.58;96.20;97873.05;104549;1280;24709;-64
2022/10/03 06:31:12;;;;;;;130.90;85.60;;;;;;;9.63;95.87;97877.56;104472;1281;22576;-65
2022/10/03 06:34:01;;;;;;;15.10;6.60;;;;;;;9.70;95.52;97881.10;104991;1274;25336;-66
2022/10/03 06:36:43;;;;;;;8.70;2.90;;;;;;;9.77;94.90;97882.65;105044;1276;25226;-65
2022/10/03 06:39:29;;;;;;;4.90;2.30;;;;;;;9.83;94.37;97887.13;105140;1273;22718;-62
2022/10/03 06:42:17;;;;;;;7.20;2.40;;;;;;;9.88;93.77;97889.66;105013;1274;24598;-59
2022/10/03 06:45:08;;;;;;;27.30;18.10;;;;;;;9.93;92.85;97898.04;105014;1275;24242;-64
2022/10/03 06:47:50;;;;;;;8.80;3.00;;;;;;;9.98;92.24;97901.98;109508;1273;23239;-63
2022/10/03 06:50:35;;;;;;;5.40;1.90;;;;;;;10.02;91.11;97905.84;109480;1273;22422;-62
2022/10/03 06:56:07;;;;;;;3.90;2.50;;;;;;;10.09;89.49;97905.81;101910;1309;545147;-64
2022/10/03 06:58:57;;;;;;;7.00;2.00;;;;;;;10.10;89.16;97907.98;104084;1287;22603;-62
2022/10/03 07:01:49;;;;;;;4.50;2.40;;;;;;;10.13;88.70;97913.84;108436;1285;22451;-63
2022/10/03 07:04:33;;;;;;;5.50;1.90;;;;;;;10.16;88.55;97918.23;108376;1286;22228;-63
2022/10/03 07:07:24;;;;;;;5.60;2.30;;;;;;;10.19;88.03;97918.77;108324;1286;23240;-63
2022/10/03 07:10:12;;;;;;;7.00;2.40;;;;;;;10.22;87.84;97916.33;107811;1283;910100;-63
2022/10/03 07:12:43;;;;;;;;;;;;;;;10.26;87.51;97919.40;108646;1283;23648;-63
2022/10/03 07:15:25;;;;;;;5.40;1.70;;;;;;;10.30;87.27;97923.44;108626;1283;22786;-63
2022/10/03 07:18:28;;;;;;;6.20;2.00;;;;;;;10.33;87.36;97922.52;108625;1283;22256;-64
2022/10/03 07:21:16;;;;;;;4.00;1.90;;;;;;;10.35;86.94;97921.84;108638;1283;22556;-65
2022/10/03 07:24:08;;;;;;;7.50;2.10;;;;;;;10.38;86.38;97932.14;108467;1283;22518;-66
2022/10/03 07:26:44;;;;;;;4.90;1.80;;;;;;;10.41;86.58;97926.42;108541;1283;23011;-67
2022/10/03 07:29:33;;;;;;;5.30;2.00;;;;;;;10.42;86.03;97928.20;108463;1283;22489;-66
2022/10/03 07:32:25;;;;;;;12.40;2.70;;;;;;;10.43;85.91;97927.16;108552;1283;22578;-66
2022/10/03 07:35:19;;;;;;;136.50;84.00;;;;;;;10.43;85.97;97928.77;108462;1283;22645;-64
2022/10/03 07:41:26;;;;;;;5.60;2.80;;;;;;;10.50;85.67;97927.23;108660;1283;22466;-72
2022/10/03 07:44:32;;;;;;;9.40;2.50;;;;;;;10.53;85.51;97926.89;108603;1283;23632;-72
2022/10/03 07:47:21;;;;;;;6.60;2.60;;;;;;;10.55;85.18;97925.21;108358;1283;22467;-70
2022/10/03 07:50:13;;;;;;;5.50;2.30;;;;;;;10.58;85.17;97922.13;108669;1283;22542;-74
2022/10/03 07:52:53;;;;;;;38.60;22.70;;;;;;;10.63;85.41;97922.98;108615;1283;22441;-77
2022/10/03 07:56:01;;;;;;;11.70;4.30;;;;;;;10.70;85.37;97925.95;104466;1284;24170;-71
2022/10/03 07:58:53;;;;;;;5.80;2.30;;;;;;;10.75;85.25;97926.52;103328;1292;24399;-71
2022/10/03 08:01:31;;;;;;;7.00;2.80;;;;;;;10.78;84.89;97922.67;103378;1292;24314;-72
2022/10/03 08:04:29;;;;;;;6.70;2.40;;;;;;;10.79;84.68;97925.39;103392;1290;22607;-72
2022/10/03 08:07:19;;;;;;;6.40;2.70;;;;;;;10.80;84.90;97921.13;103452;1292;23279;-71
2022/10/03 08:09:59;;;;;;;4.90;2.10;;;;;;;10.81;84.69;97922.09;103372;1290;22571;-75
2022/10/03 08:12:28;;;;;;;7.20;2.80;;;;;;;10.82;84.58;97919.29;103087;1292;25367;-72
2022/10/03 08:15:26;;;;;;;2.80;1.80;;;;;;;10.83;84.26;97920.17;107478;1292;22582;-72
2022/10/03 08:17:59;;;;;;;5.00;2.40;;;;;;;10.85;84.28;97916.88;107583;1292;22422;-72
2022/10/03 08:20:41;;;;;;;3.70;2.40;;;;;;;10.87;83.93;97920.70;107630;1291;22530;-75
2022/10/03 08:23:17;;;;;;;6.60;2.30;;;;;;;10.90;83.57;97922.52;107613;1290;22594;-73
2022/10/03 08:26:10;;;;;;;12.20;2.80;;;;;;;10.93;82.90;97924.43;107548;1292;22622;-71
2022/10/03 08:29:07;;;;;;;4.90;2.10;;;;;;;10.99;82.72;97917.50;108535;1282;22474;-72
2022/10/03 08:31:51;;;;;;;5.90;2.40;;;;;;;11.05;82.52;97921.60;108695;1279;23418;-71
2022/10/03 08:34:48;;;;;;;3.50;1.90;;;;;;;11.15;82.29;97923.97;108939;1273;23417;-72
2022/10/03 08:37:27;;;;;;;4.40;2.40;;;;;;;11.21;81.11;97922.23;109527;1273;22574;-71
2022/10/03 08:40:45;;;;;;;3.60;1.90;;;;;;;11.22;80.59;97921.61;108090;1273;24347;-68
2022/10/03 08:43:34;;;;;;;4.10;1.90;;;;;;;11.23;79.90;97925.48;104734;1280;24431;-66
2022/10/03 08:46:00;;;;;;;89.30;52.80;;;;;;;11.25;79.50;97934.70;104960;1277;24498;-67
2022/10/03 08:48:49;;;;;;;8.00;3.80;;;;;;;11.29;79.68;97936.25;105030;1277;24181;-67
2022/10/03 08:51:44;;;;;;;8.20;2.70;;;;;;;11.35;79.26;97933.48;104664;1278;22566;-67
2022/10/03 08:54:21;;;;;;;5.50;2.00;;;;;;;11.39;78.72;97933.91;109197;1277;22504;-68
2022/10/03 08:57:00;;;;;;;;;;;;;;;11.41;78.82;97933.69;109196;1277;22995;-68
2022/10/03 09:00:00;;;;;;;6.50;1.90;;;;;;;11.41;78.54;97930.23;109106;1276;22576;-68
2022/10/03 09:03:00;;;;;;;13.80;4.80;;;;;;;11.40;78.01;97936.16;108952;1277;22454;-68
2022/10/03 09:06:09;;;;;;;7.30;2.10;;;;;;;11.38;78.29;97940.73;109147;1277;22411;-67
2022/10/03 09:08:49;;;;;;;6.70;2.50;;;;;;;11.37;78.51;97944.73;109201;1277;22689;-68
2022/10/03 09:11:37;;;;;;;4.10;2.40;;;;;;;11.36;77.62;97944.65;109154;1277;22297;-68
2022/10/03 09:14:09;;;;;;;5.50;2.00;;;;;;;11.34;77.66;97939.60;109071;1277;22671;-68
2022/10/03 09:17:05;;;;;;;6.70;2.30;;;;;;;11.37;77.53;97941.08;109234;1276;22419;-69
2022/10/03 09:19:51;;;;;;;99.70;61.60;;;;;;;11.42;77.40;97942.44;109376;1271;22392;-67
2022/10/03 09:22:24;;;;;;;6.60;3.60;;;;;;;11.49;77.13;97939.27;109509;1271;22579;-69
2022/10/03 09:24:54;;;;;;;7.70;2.80;;;;;;;11.57;76.83;97940.73;109531;1272;22462;-69
2022/10/03 09:27:34;;;;;;;4.80;2.10;;;;;;;11.64;76.64;97943.94;109514;1272;23637;-69
2022/10/03 09:30:16;;;;;;;7.40;2.20;;;;;;;11.69;75.90;97945.23;109563;1273;23192;-70
2022/10/03 09:33:08;;;;;;;3.10;2.10;;;;;;;11.74;76.08;97943.80;109605;1272;23102;-68
2022/10/03 09:35:59;;;;;;;6.50;1.90;;;;;;;11.80;75.59;97946.65;109572;1274;23757;-69
2022/10/03 09:38:45;;;;;;;4.80;2.10;;;;;;;11.86;74.97;97944.54;109583;1272;22610;-69
2022/10/03 09:41:33;;;;;;;7.80;2.10;;;;;;;11.90;74.99;97947.58;105815;1274;24447;-71
2022/10/03 09:44:36;;;;;;;3.60;1.70;;;;;;;11.95;74.60;97944.37;105166;1274;23483;-67
2022/10/03 09:47:21;;;;;;;7.30;1.80;;;;;;;12.00;74.43;97949.31;104677;1280;22564;-67
2022/10/03 09:49:54;;;;;;;5.80;1.60;;;;;;;12.04;74.38;97949.40;104766;1280;24280;-69
2022/10/03 09:52:25;;;;;;;4.00;1.80;;;;;;;12.06;74.21;97954.45;104737;1280;26882;-69
2022/10/03 09:55:30;;;;;;;2.40;1.90;;;;;;;12.08;74.10;97950.38;108906;1279;22470;-69
2022/10/03 09:58:11;;;;;;;61.70;36.80;;;;;;;12.11;74.65;97952.82;108913;1278;22449;-69
2022/10/03 10:01:15;;;;;;;6.30;3.20;;;;;;;12.19;74.24;97947.39;108967;1280;22433;-69
2022/10/03 10:03:45;;;;;;;81.10;50.70;;;;;;;12.31;73.67;97949.08;108790;1279;23248;-69
2022/10/03 10:06:37;;;;;;;8.40;3.80;;;;;;;12.39;73.51;97953.28;108778;1279;22454;-69
2022/10/03 10:09:20;;;;;;;6.90;3.50;;;;;;;12.47;72.70;97954.30;108937;1278;23671;-67
2022/10/03 10:12:14;;;;;;;5.50;2.00;;;;;;;12.53;71.90;97955.64;108917;1279;22380;-68
2022/10/03 10:14:52;;;;;;;6.20;2.40;;;;;;;12.59;71.86;97962.91;108971;1277;22492;-67
2022/10/03 10:17:37;;;;;;;3.50;1.50;;;;;;;12.63;71.53;97962.32;108755;1278;22431;-68
2022/10/03 10:20:35;;;;;;;9.60;1.90;;;;;;;12.67;71.01;97960.81;108890;1279;22688;-68
2022/10/03 10:23:06;;;;;;;3.50;1.50;;;;;;;12.71;70.67;97960.05;109606;1273;22539;-68
2022/10/03 10:25:41;;;;;;;3.90;1.70;;;;;;;12.73;70.61;97958.91;109552;1271;23152;-69
2022/10/03 10:28:30;;;;;;;5.30;1.80;;;;;;;12.73;69.60;97959.02;109495;1273;23100;-68
2022/10/03 10:31:15;;;;;;;13.00;8.30;;;;;;;12.72;69.82;97959.36;109507;1272;22438;-66
2022/10/03 10:33:51;;;;;;;6.90;2.10;;;;;;;12.73;69.66;97959.91;109493;1271;22471;-68
2022/10/03 10:36:55;;;;;;;3.20;1.60;;;;;;;12.72;69.71;97964.56;109538;1273;22416;-67
2022/10/03 10:39:47;;;;;;;3.60;1.60;;;;;;;12.70;69.16;97965.00;109545;1273;22598;-67
2022/10/03 10:42:45;;;;;;;3.60;1.50;;;;;;;12.67;68.96;97966.02;109542;1272;22433;-67
2022/10/03 10:45:24;;;;;;;5.50;1.70;;;;;;;12.61;69.16;97965.11;109459;1273;23093;-66
2022/10/03 10:48:12;;;;;;;3.60;1.70;;;;;;;12.55;69.31;97968.48;109549;1274;23212;-66
2022/10/03 10:50:42;;;;;;;2.80;1.70;;;;;;;12.48;69.18;97967.87;109499;1271;23380;-66
2022/10/03 10:53:46;;;;;;;4.70;2.20;;;;;;;12.43;69.57;97966.50;109538;1272;22542;-67
2022/10/03 10:56:55;;;;;;;4.20;1.60;;;;;;;12.42;70.11;97968.83;109531;1271;22968;-67
2022/10/03 10:59:52;;;;;;;8.30;1.90;;;;;;;12.46;69.92;97968.95;108858;1279;23672;-67
2022/10/03 11:02:28;;;;;;;5.60;2.40;;;;;;;12.51;69.77;97974.30;108927;1277;23548;-69
2022/10/03 11:05:33;;;;;;;2.00;1.00;;;;;;;12.55;70.16;97975.85;108963;1279;22462;-68
2022/10/03 11:08:21;;;;;;;4.20;1.30;;;;;;;12.58;69.72;97981.03;108867;1280;22506;-68
2022/10/03 11:11:06;;;;;;;2.30;1.30;;;;;;;12.57;70.84;97979.35;109054;1279;22583;-68
2022/10/03 11:13:54;;;;;;;5.70;2.00;;;;;;;12.56;71.70;97984.52;108877;1279;23182;-69
2022/10/03 11:16:40;;;;;;;4.90;2.10;;;;;;;12.54;72.27;97982.56;108633;1279;22632;-69
2022/10/03 11:19:25;;;;;;;6.30;1.40;;;;;;;12.56;73.20;97981.30;108887;1279;23423;-68
2022/10/03 11:22:17;;;;;;;7.40;2.20;;;;;;;12.61;73.02;97976.46;108892;1278;22433;-69
2022/10/03 11:25:06;;;;;;;3.40;1.70;;;;;;;12.65;72.69;97982.30;109015;1277;23384;-68
2022/10/03 11:28:27;;;;;;;6.00;2.10;;;;;;;12.65;71.83;97977.86;108897;1278;22414;-69
2022/10/03 11:31:09;;;;;;;5.90;2.10;;;;;;;12.65;72.02;97983.77;108562;1281;22839;-68
2022/10/03 11:33:57;;;;;;;7.50;2.20;;;;;;;12.64;72.06;97988.05;108982;1279;22505;-70
2022/10/03 11:36:40;;;;;;;41.20;26.80;;;;;;;12.59;72.37;97992.52;108913;1279;22445;-67
2022/10/03 11:39:35;;;;;;;10.10;5.20;;;;;;;12.49;73.96;97994.79;108909;1280;23397;-69
2022/10/03 11:42:27;;;;;;;3.60;2.00;;;;;;;12.40;75.38;97984.29;108911;1279;23661;-69
2022/10/03 11:45:01;;;;;;;3.00;1.70;;;;;;;12.31;76.36;97980.86;108707;1280;22474;-70
2022/10/03 11:47:40;;;;;;;5.80;1.80;;;;;;;12.26;76.84;97983.85;108875;1279;22475;-68
2022/10/03 11:50:39;;;;;;;6.00;1.50;;;;;;;12.24;77.28;97987.16;108891;1280;23224;-69
2022/10/03 11:53:30;;;;;;;2.80;1.20;;;;;;;12.19;76.56;97988.58;108792;1279;23125;-69
2022/10/03 11:56:26;;;;;;;4.90;1.40;;;;;;;12.14;75.99;97991.18;108851;1279;23367;-70
2022/10/03 11:59:11;;;;;;;4.10;1.80;;;;;;;12.09;75.82;97996.42;108900;1277;22490;-68
2022/10/03 12:02:03;;;;;;;170.00;114.90;;;;;;;12.06;76.05;98001.13;108891;1278;22480;-67
2022/10/03 12:05:06;;;;;;;13.20;7.50;;;;;;;12.03;76.16;97993.10;108599;1277;22483;-66
2022/10/03 12:10:46;;;;;;;7.00;1.70;;;;;;;11.99;76.61;97999.12;108944;1277;22459;-71
2022/10/03 12:13:16;;;;;;;5.70;1.90;;;;;;;12.01;76.95;97992.21;108866;1280;23440;-71
2022/10/03 12:15:45;;;;;;;5.60;2.30;;;;;;;12.05;77.21;97991.55;108757;1280;22547;-70
2022/10/03 12:18:28;;;;;;;3.80;1.90;;;;;;;12.07;76.92;97983.86;108970;1278;22456;-72
2022/10/03 12:21:06;;;;;;;6.30;2.00;;;;;;;12.09;76.22;97981.96;108932;1278;22505;-70
2022/10/03 12:23:50;;;;;;;4.40;2.10;;;;;;;12.12;75.72;97982.31;109012;1277;22498;-71
2022/10/03 12:26:27;;;;;;;8.60;2.50;;;;;;;12.16;75.41;97982.27;108936;1277;22483;-69
2022/10/03 12:28:54;;;;;;;4.30;2.20;;;;;;;12.21;74.99;97985.84;108614;1279;22435;-69
2022/10/03 12:31:25;;;;;;;;;;;;;;;12.26;74.37;97981.69;108998;1278;23717;-69
2022/10/03 12:34:07;;;;;;;10.00;3.20;;;;;;;12.30;74.03;97979.23;108864;1279;22638;-69
2022/10/03 12:36:52;;;;;;;4.70;3.00;;;;;;;12.34;73.68;97981.58;108841;1277;22565;-69
2022/10/03 12:39:29;;;;;;;11.20;4.60;;;;;;;12.35;72.92;97987.45;108731;1278;22595;-54
2022/10/03 12:42:10;;;;;;;33.00;15.90;;;;;;;12.34;72.88;98000.75;104956;1274;26370;-58
2022/10/03 12:44:59;;;;;;;11.80;6.20;;;;;;;12.31;73.19;98002.64;105182;1274;23993;-56
2022/10/03 12:47:52;;;;;;;6.60;3.20;;;;;;;12.27;74.05;98000.39;109434;1271;23166;-57
2022/10/03 12:50:43;;;;;;;8.10;3.10;;;;;;;12.23;73.99;97995.96;109524;1273;23377;-57
2022/10/03 12:53:37;;;;;;;4.90;2.20;;;;;;;12.21;73.99;97993.98;109565;1272;22392;-57
2022/10/03 12:56:14;;;;;;;3.90;2.20;;;;;;;12.21;73.91;97989.02;109172;1277;22492;-57
2022/10/03 12:58:41;;;;;;;;;;;;;;;12.22;73.68;97985.13;109124;1277;22595;-56
2022/10/03 13:01:32;;;;;;;9.50;4.50;;;;;;;12.23;73.28;97983.63;109084;1277;22575;-57
2022/10/03 13:04:19;;;;;;;9.50;3.40;;;;;;;12.26;72.73;97980.73;109134;1277;22443;-56